Yarnton, United Kingdom
Current Conditions -  °F | °C
As of 1:20 PM on Friday 19 Dec 2014 (Local Time) from EGTK Reporting Station
Scattered Clouds Scattered Clouds  
Wind Chill:   Ceiling: Unl
Heat Index:   Visibility: 6mi
Dew Point:   Wind: 15mph
Humidity: 71%   Direction: 260°W
Pressure: 30"   Gusts: NA
Location:  51.81°N, 1.31°W
Report Text: EGTK 191320Z 26013KT 9999 SCT037 09/04 Q1016
Loading
Personal Weather Stations






























Interactive Weather Map New forecast layout! Learn more

10-Day Weather Forecast

Advertisements
Track Severe Weather on mobile